Time;durP1;ratioP1;P1;durP2;ratioP2;P2;SDS_P1;SDS_P2;PMS_P1;PMS_P2;Temp;Humidity;BMP_temperature;BMP_pressure;BME280_temperature;BME280_humidity;BME280_pressure;Samples;Min_cycle;Max_cycle;Signal;HPM_P1;HPM_P2
2023/04/12 00:03:19;;;;;;;1.38;0.60;;;;;;;15.01;53.03;96150.06;10413176;28;20029;-28
2023/04/12 00:08:23;;;;;;;2.05;0.57;;;;;;;14.98;53.75;96134.09;10417355;28;20044;-29
2023/04/12 00:13:23;;;;;;;9.60;1.35;;;;;;;14.99;53.58;96128.22;10409203;28;20475;-28
2023/04/12 00:18:24;;;;;;;0.60;0.40;;;;;;;14.99;53.68;96131.59;10416649;28;20029;-29
2023/04/12 00:23:24;;;;;;;0.75;0.50;;;;;;;14.99;52.88;96113.94;10408594;28;20029;-28
2023/04/12 00:28:25;;;;;;;0.38;0.32;;;;;;;15.02;53.41;96106.38;10433492;28;20033;-28
2023/04/12 00:33:25;;;;;;;3.93;0.50;;;;;;;15.02;52.83;96101.34;10421352;28;20495;-28
2023/04/12 00:38:26;;;;;;;3.07;1.83;;;;;;;15.01;52.65;96088.75;10431594;28;20033;-28
2023/04/12 00:43:26;;;;;;;1.13;0.50;;;;;;;15.01;52.84;96073.63;10413045;28;20042;-28
2023/04/12 00:48:27;;;;;;;0.95;0.60;;;;;;;15.01;52.89;96069.41;10416136;28;20632;-29
2023/04/12 00:53:28;;;;;;;1.88;0.52;;;;;;;14.99;52.90;96055.97;10425745;28;20467;-29
2023/04/12 00:58:31;;;;;;;1.67;0.55;;;;;;;14.99;53.20;96047.56;10427938;28;20059;-28
2023/04/12 01:03:32;;;;;;;0.98;0.40;;;;;;;14.96;52.90;96038.34;10425055;28;20037;-29
2023/04/12 01:08:56;;;;;;;2.15;0.70;;;;;;;14.96;53.01;96018.19;10424835;28;20044;-29
2023/04/12 01:14:13;;;;;;;0.60;0.40;;;;;;;14.97;53.21;96002.22;10439280;28;20025;-29
2023/04/12 01:19:35;;;;;;;1.17;0.65;;;;;;;14.96;53.03;95990.47;10423379;28;20043;-29
2023/04/12 01:25:03;;;;;;;1.20;0.57;;;;;;;14.96;53.07;95982.91;10419315;28;20224;-29
2023/04/12 01:30:12;;;;;;;1.53;0.30;;;;;;;14.96;53.14;95969.44;10438064;28;20402;-29
2023/04/12 01:35:18;;;;;;;1.33;0.60;;;;;;;14.96;53.34;95950.13;10432117;28;20373;-28
2023/04/12 01:40:18;;;;;;;0.80;0.30;;;;;;;14.95;53.42;95943.38;10429342;28;20496;-28
2023/04/12 01:45:19;;;;;;;0.82;0.38;;;;;;;14.96;53.12;95932.50;10413751;28;20041;-29
2023/04/12 01:50:33;;;;;;;0.90;0.52;;;;;;;14.97;52.88;95915.69;10412811;28;20137;-28
2023/04/12 01:55:36;;;;;;;0.40;0.30;;;;;;;14.87;52.97;95894.66;10454328;28;20099;-28
2023/04/12 02:00:37;;;;;;;0.63;0.50;;;;;;;14.95;52.81;95903.06;10418898;28;20033;-28
2023/04/12 02:05:40;;;;;;;0.30;0.20;;;;;;;14.89;52.91;95893.00;10433282;28;20395;-28
2023/04/12 02:10:40;;;;;;;0.50;0.40;;;;;;;14.93;52.91;95897.19;10429680;28;20531;-28
2023/04/12 02:15:41;;;;;;;1.37;0.40;;;;;;;14.97;52.35;95887.97;10422528;28;20030;-29
2023/04/12 02:20:42;;;;;;;0.40;0.35;;;;;;;15.00;52.50;95888.78;10412741;28;20310;-28
2023/04/12 02:25:45;;;;;;;0.73;0.38;;;;;;;15.00;52.51;95883.75;10431969;28;20121;-29
2023/04/12 02:30:45;;;;;;;0.95;0.50;;;;;;;15.02;52.50;95874.50;10436463;28;20049;-29
2023/04/12 02:35:46;;;;;;;0.75;0.52;;;;;;;15.03;52.22;95875.34;10444923;28;20456;-30
2023/04/12 02:40:49;;;;;;;1.05;0.40;;;;;;;15.01;52.49;95872.84;10420156;28;20076;-28
2023/04/12 02:45:51;;;;;;;0.70;0.43;;;;;;;15.03;52.18;95865.28;10419093;28;20053;-29
2023/04/12 02:50:52;;;;;;;0.60;0.38;;;;;;;15.03;52.07;95858.53;10447800;28;20025;-29
2023/04/12 02:55:56;;;;;;;1.20;0.68;;;;;;;15.02;52.42;95826.63;10410543;28;20036;-29
2023/04/12 03:00:59;;;;;;;0.93;0.55;;;;;;;15.00;52.76;95815.72;10427044;28;20139;-28
2023/04/12 03:06:05;;;;;;;0.73;0.40;;;;;;;15.02;52.81;95803.94;10447257;28;20025;-33
2023/04/12 03:11:07;;;;;;;1.08;0.40;;;;;;;15.06;52.30;95804.78;10410189;28;20120;-28
2023/04/12 03:16:22;;;;;;;0.50;0.32;;;;;;;15.05;52.17;95793.88;10427107;28;20030;-29
2023/04/12 03:21:27;;;;;;;1.00;0.40;;;;;;;15.06;51.75;95785.47;10451113;28;20125;-29
2023/04/12 03:26:29;;;;;;;0.20;0.17;;;;;;;15.04;52.23;95772.00;10434008;28;20507;-28
2023/04/12 03:31:32;;;;;;;0.93;0.40;;;;;;;15.04;52.15;95772.00;10442445;28;20021;-28
2023/04/12 03:36:38;;;;;;;0.73;0.43;;;;;;;15.04;52.34;95761.91;10428536;28;20131;-28
2023/04/12 03:41:47;;;;;;;0.88;0.35;;;;;;;15.03;51.97;95765.28;10408749;28;20059;-28
2023/04/12 03:46:47;;;;;;;0.63;0.45;;;;;;;15.02;52.49;95753.53;10410191;28;20116;-28
2023/04/12 03:51:51;;;;;;;0.40;0.30;;;;;;;15.03;52.35;95739.25;10449693;28;20044;-28
2023/04/12 03:56:51;;;;;;;0.50;0.30;;;;;;;15.08;52.23;95745.13;10433127;28;20526;-28
2023/04/12 04:02:01;;;;;;;0.98;0.43;;;;;;;15.09;52.19;95745.13;10416163;28;20296;-28
2023/04/12 04:07:04;;;;;;;0.65;0.30;;;;;;;15.12;51.75;95740.06;10407854;28;20067;-28
2023/04/12 04:12:13;;;;;;;0.80;0.50;;;;;;;15.13;51.83;95736.72;10424315;28;20032;-29
2023/04/12 04:17:18;;;;;;;0.40;0.20;;;;;;;15.14;52.20;95740.91;10407290;28;20128;-29
2023/04/12 04:22:20;;;;;;;1.13;0.33;;;;;;;15.16;52.24;95736.72;10432624;28;20037;-28
2023/04/12 04:27:22;;;;;;;0.75;0.45;;;;;;;15.13;52.17;95719.09;10448552;28;20362;-29
2023/04/12 04:32:24;;;;;;;0.30;0.30;;;;;;;15.14;52.48;95698.06;10449502;28;20492;-29
2023/04/12 04:37:29;;;;;;;0.75;0.30;;;;;;;15.17;52.04;95687.97;10439975;28;20064;-28
2023/04/12 04:42:31;;;;;;;0.50;0.35;;;;;;;15.14;52.45;95677.06;10447975;28;20052;-28
2023/04/12 04:47:35;;;;;;;2.80;0.75;;;;;;;15.18;52.95;95673.69;10457519;28;20033;-28
2023/04/12 04:52:36;;;;;;;1.92;0.65;;;;;;;15.18;53.43;95674.50;10416769;28;20447;-29
2023/04/12 04:57:41;;;;;;;2.95;0.77;;;;;;;15.20;52.94;95666.94;10424002;28;20089;-30
2023/04/12 05:02:42;;;;;;;4.53;0.70;;;;;;;15.18;52.96;95663.59;10438604;28;20381;-28
2023/04/12 05:07:43;;;;;;;6.88;1.60;;;;;;;15.19;53.59;95658.53;10414035;28;20030;-28
2023/04/12 05:12:44;;;;;;;4.57;1.00;;;;;;;15.19;54.38;95656.00;10422380;28;20037;-29
2023/04/12 05:17:47;;;;;;;5.82;1.27;;;;;;;15.19;54.38;95655.19;10452824;28;20037;-28
2023/04/12 05:22:47;;;;;;;5.90;1.00;;;;;;;15.19;54.39;95656.00;10446809;28;20035;-28
2023/04/12 05:27:48;;;;;;;5.93;1.00;;;;;;;15.20;54.35;95644.25;10438921;28;20040;-28
2023/04/12 05:32:51;;;;;;;4.97;1.13;;;;;;;15.20;54.53;95632.47;10452502;28;20033;-28
2023/04/12 05:37:53;;;;;;;6.03;1.25;;;;;;;15.21;54.33;95619.06;10419207;28;20029;-28
2023/04/12 05:42:54;;;;;;;4.50;1.40;;;;;;;15.21;54.57;95608.97;10446364;28;20132;-29
2023/04/12 05:47:54;;;;;;;2.85;0.80;;;;;;;15.19;54.73;95595.50;10444755;28;20043;-29
2023/04/12 05:52:55;;;;;;;4.68;2.10;;;;;;;15.18;55.44;95583.75;10413977;28;20034;-28
2023/04/12 05:58:00;;;;;;;6.85;1.63;;;;;;;15.19;54.98;95585.44;10412557;28;20495;-29
2023/04/12 06:03:03;;;;;;;4.25;1.40;;;;;;;15.21;54.95;95581.25;10443801;28;20025;-29
2023/04/12 06:08:04;;;;;;;6.53;2.00;;;;;;;15.22;54.91;95582.91;10434140;28;20063;-28
2023/04/12 06:13:04;;;;;;;4.68;1.38;;;;;;;15.21;54.82;95562.75;10451177;28;20565;-28
2023/04/12 06:18:06;;;;;;;7.78;1.50;;;;;;;15.20;55.28;95556.84;10450223;28;20156;-28
2023/04/12 06:23:06;;;;;;;3.38;1.10;;;;;;;15.23;54.83;95556.00;10425291;28;20549;-29
2023/04/12 06:28:08;;;;;;;2.60;1.10;;;;;;;15.23;55.02;95538.34;10423663;28;20033;-28
2023/04/12 06:33:16;;;;;;;6.30;2.08;;;;;;;15.21;54.95;95540.91;10445103;28;20048;-28
2023/04/12 06:38:17;;;;;;;8.35;2.30;;;;;;;15.23;55.05;95539.22;10419104;28;20068;-28
2023/04/12 06:43:19;;;;;;;2.75;1.50;;;;;;;15.22;55.20;95529.13;10420617;28;20445;-29
2023/04/12 06:48:19;;;;;;;3.42;1.55;;;;;;;15.24;54.04;95532.47;10428401;28;20108;-28
2023/04/12 06:53:20;;;;;;;5.47;2.33;;;;;;;15.22;54.48;95524.09;10422101;28;20031;-29
2023/04/12 06:58:20;;;;;;;5.38;1.52;;;;;;;15.26;53.98;95521.53;10411272;28;20341;-29
2023/04/12 07:03:22;;;;;;;5.00;2.03;;;;;;;15.32;54.15;95515.63;10425823;28;20491;-29
2023/04/12 07:08:23;;;;;;;4.80;1.73;;;;;;;15.30;53.96;95505.56;10419640;28;20312;-28
2023/04/12 07:13:23;;;;;;;5.90;2.07;;;;;;;15.31;55.17;95504.72;10426114;28;20032;-28
2023/04/12 07:18:24;;;;;;;23.43;2.50;;;;;;;15.31;54.73;95497.16;10419895;28;20063;-29
2023/04/12 07:23:25;;;;;;;14.43;2.58;;;;;;;15.31;54.44;95492.13;10432702;28;20053;-28
2023/04/12 07:28:26;;;;;;;17.50;2.53;;;;;;;15.30;54.20;95477.81;10439211;28;20162;-29
2023/04/12 07:33:26;;;;;;;4.40;2.53;;;;;;;15.29;54.29;95481.16;10410342;28;20112;-28
2023/04/12 07:38:27;;;;;;;10.30;2.20;;;;;;;15.32;53.89;95480.34;10417721;28;20033;-30
2023/04/12 07:43:27;;;;;;;10.37;2.30;;;;;;;15.31;53.65;95466.91;10425245;28;20039;-28
2023/04/12 07:48:27;;;;;;;7.80;1.93;;;;;;;15.32;53.63;95470.25;10427777;28;20037;-29
2023/04/12 07:53:28;;;;;;;8.23;1.60;;;;;;;15.36;53.01;95444.19;10412940;28;20288;-29
2023/04/12 07:58:29;;;;;;;9.15;1.88;;;;;;;15.39;53.22;95436.59;10424331;28;20025;-29
2023/04/12 08:03:29;;;;;;;7.70;1.52;;;;;;;15.40;53.31;95444.16;10438526;28;20060;-29
2023/04/12 08:08:30;;;;;;;6.65;1.60;;;;;;;15.40;53.54;95433.22;10418625;28;20046;-29
2023/04/12 08:13:33;;;;;;;7.15;1.33;;;;;;;15.38;53.56;95435.75;10422958;28;20258;-29
2023/04/12 08:18:33;;;;;;;3.85;1.80;;;;;;;15.38;53.25;95440.81;10429255;28;20032;-28
2023/04/12 08:23:34;;;;;;;5.13;2.50;;;;;;;15.37;53.51;95461.81;10432566;28;20033;-28
2023/04/12 08:28:34;;;;;;;8.13;2.28;;;;;;;15.36;53.93;95467.69;10407574;28;20094;-28
2023/04/12 08:33:35;;;;;;;6.37;2.30;;;;;;;15.36;54.92;95467.69;10418038;28;20515;-28
2023/04/12 08:38:38;;;;;;;5.43;1.90;;;;;;;15.35;55.30;95468.56;10413824;28;20606;-28
2023/04/12 08:43:43;;;;;;;4.53;3.17;;;;;;;15.38;54.48;95480.31;10407148;28;20475;-28
2023/04/12 08:48:45;;;;;;;5.75;2.85;;;;;;;15.40;54.60;95484.50;10407956;28;20061;-28
2023/04/12 08:53:46;;;;;;;7.50;3.58;;;;;;;15.41;53.69;95485.31;10408239;28;20399;-29
2023/04/12 08:58:50;;;;;;;6.95;2.13;;;;;;;15.38;54.08;95491.25;10432572;28;20033;-28
2023/04/12 09:03:50;;;;;;;5.22;2.22;;;;;;;15.38;53.49;95501.31;10424382;28;20033;-28
2023/04/12 09:08:55;;;;;;;7.00;2.20;;;;;;;15.37;53.88;95517.28;10416348;28;20034;-29
2023/04/12 09:13:56;;;;;;;4.97;2.72;;;;;;;15.36;54.16;95503.00;10415987;28;20546;-28
2023/04/12 09:18:56;;;;;;;4.97;2.50;;;;;;;15.36;54.11;95515.59;10407497;28;20068;-28
2023/04/12 09:24:08;;;;;;;4.55;1.88;;;;;;;15.35;54.04;95511.41;10412252;28;20039;-29
2023/04/12 09:29:23;;;;;;;3.47;1.90;;;;;;;15.34;54.53;95524.06;10437635;28;20144;-29
2023/04/12 09:34:24;;;;;;;3.05;1.50;;;;;;;15.35;54.02;95518.16;10450977;28;20083;-28
2023/04/12 09:39:34;;;;;;;14.20;2.50;;;;;;;15.33;54.82;95533.28;10469874;28;20066;-29
2023/04/12 09:44:34;;;;;;;9.38;2.20;;;;;;;15.34;54.63;95509.75;10460487;28;20331;-28
2023/04/12 09:49:43;;;;;;;12.80;2.70;;;;;;;15.31;54.73;95484.56;10461463;28;20065;-28
2023/04/12 09:54:45;;;;;;;3.63;1.60;;;;;;;15.29;55.00;95488.72;10414405;28;20029;-28
2023/04/12 09:59:48;;;;;;;5.28;1.88;;;;;;;15.31;54.86;95464.41;10415493;28;20096;-28
2023/04/12 10:04:48;;;;;;;3.45;1.80;;;;;;;15.35;56.07;95455.94;10422147;28;20033;-29
2023/04/12 10:09:49;;;;;;;7.43;2.20;;;;;;;15.38;55.07;95455.94;10414462;28;20546;-29
2023/04/12 10:14:51;;;;;;;4.40;1.88;;;;;;;15.41;55.04;95430.69;10425651;28;20029;-29
2023/04/12 10:19:52;;;;;;;5.57;1.58;;;;;;;15.44;55.03;95444.97;10415454;28;20045;-29
2023/04/12 10:24:53;;;;;;;8.02;1.30;;;;;;;15.44;55.29;95425.59;10416963;28;20581;-29
2023/04/12 10:30:21;;;;;;;5.07;1.63;;;;;;;15.49;54.94;95418.00;10425146;28;20047;-29
2023/04/12 10:35:21;;;;;;;5.50;1.80;;;;;;;15.53;54.60;95427.22;10428526;28;20478;-29
2023/04/12 10:40:21;;;;;;;7.33;1.87;;;;;;;15.64;54.37;95438.88;10419426;28;20037;-29
2023/04/12 10:45:22;;;;;;;5.87;2.10;;;;;;;15.68;54.11;95425.38;10425146;28;20026;-28
2023/04/12 10:50:25;;;;;;;7.65;1.83;;;;;;;15.73;54.28;95431.22;10431236;28;20036;-29
2023/04/12 10:55:31;;;;;;;3.97;1.55;;;;;;;15.73;54.74;95423.66;10434196;28;20102;-28
2023/04/12 11:00:59;;;;;;;12.93;1.70;;;;;;;15.73;55.00;95428.72;10419431;28;20025;-29
2023/04/12 11:06:03;;;;;;;8.18;2.10;;;;;;;15.79;54.21;95423.56;10432483;28;20966;-28
2023/04/12 11:11:21;;;;;;;5.25;1.60;;;;;;;15.80;54.54;95397.53;10438942;28;20033;-28
2023/04/12 11:16:22;;;;;;;3.73;1.40;;;;;;;15.83;54.15;95405.03;10431972;28;20487;-28
2023/04/12 11:21:26;;;;;;;3.15;1.58;;;;;;;15.81;56.39;95406.75;10418467;28;20288;-29
2023/04/12 11:26:30;;;;;;;4.57;2.05;;;;;;;15.82;56.76;95388.25;10419154;28;20459;-29
2023/04/12 11:31:30;;;;;;;3.95;1.35;;;;;;;15.84;54.98;95375.59;10418808;28;20028;-29
2023/04/12 11:36:30;;;;;;;2.30;1.07;;;;;;;15.88;54.54;95372.19;10418151;28;20459;-29
2023/04/12 11:41:31;;;;;;;4.43;1.20;;;;;;;15.84;55.28;95331.00;10432784;28;20038;-28
2023/04/12 11:46:34;;;;;;;4.57;1.20;;;;;;;15.85;54.76;95345.28;10456178;28;20635;-29
2023/04/12 11:51:35;;;;;;;6.78;1.33;;;;;;;15.86;55.22;95343.63;10445367;28;20838;-28
2023/04/12 11:56:36;;;;;;;4.85;1.48;;;;;;;15.87;55.69;95335.19;10445754;28;20041;-29
2023/04/12 12:01:36;;;;;;;3.60;1.00;;;;;;;15.91;54.81;95346.91;10444787;28;20044;-28
2023/04/12 12:06:37;;;;;;;3.97;1.48;;;;;;;15.90;55.24;95347.75;10443449;28;20038;-28
2023/04/12 12:11:37;;;;;;;3.03;1.00;;;;;;;15.94;55.26;95322.47;10454042;28;20033;-28
2023/04/12 12:16:40;;;;;;;3.22;1.20;;;;;;;15.92;55.45;95311.56;10446418;28;20658;-28
2023/04/12 12:21:40;;;;;;;2.65;1.05;;;;;;;15.94;55.63;95334.28;10443357;28;20032;-29
2023/04/12 12:26:41;;;;;;;2.17;1.00;;;;;;;15.93;55.47;95320.81;10450057;28;20038;-30
2023/04/12 12:31:46;;;;;;;2.35;1.13;;;;;;;15.89;55.74;95316.66;10453733;28;20066;-28
2023/04/12 12:36:54;;;;;;;2.28;1.08;;;;;;;15.88;55.99;95307.41;10438912;28;20033;-28
2023/04/12 12:41:55;;;;;;;2.13;1.00;;;;;;;15.91;56.53;95297.28;10444666;28;20034;-29
2023/04/12 12:46:58;;;;;;;3.05;1.58;;;;;;;15.92;57.45;95268.66;10449461;28;20041;-28
2023/04/12 12:51:59;;;;;;;3.33;1.15;;;;;;;15.99;55.56;95277.84;10448433;28;20419;-28
2023/04/12 12:57:00;;;;;;;3.20;1.03;;;;;;;15.98;55.89;95261.03;10444069;28;20044;-29
2023/04/12 13:02:00;;;;;;;3.15;0.98;;;;;;;15.94;55.65;95269.47;10467534;28;20697;-30
2023/04/12 13:07:00;;;;;;;2.50;1.20;;;;;;;15.96;55.76;95265.22;10459331;28;20070;-29
2023/04/12 13:12:01;;;;;;;3.73;0.97;;;;;;;15.92;56.45;95258.56;10461627;28;20026;-28
2023/04/12 13:17:01;;;;;;;1.80;1.00;;;;;;;15.93;56.04;95264.47;10459482;28;20333;-29
2023/04/12 13:22:01;;;;;;;1.97;1.10;;;;;;;15.94;55.95;95261.91;10450844;28;20321;-30
2023/04/12 13:27:02;;;;;;;2.80;1.47;;;;;;;15.95;55.52;95260.22;10436371;28;20511;-28
2023/04/12 13:32:03;;;;;;;5.88;1.52;;;;;;;15.94;55.71;95246.75;10429596;28;20136;-29
2023/04/12 13:37:04;;;;;;;3.33;1.20;;;;;;;15.94;55.65;95251.81;10428888;28;20116;-28
2023/04/12 13:42:05;;;;;;;1.90;1.02;;;;;;;15.93;55.71;95265.28;10433198;28;20040;-28
2023/04/12 13:47:05;;;;;;;2.45;0.77;;;;;;;15.95;55.55;95263.56;10416555;28;20044;-29
2023/04/12 13:52:06;;;;;;;3.23;0.90;;;;;;;15.94;55.78;95266.94;10430875;28;20099;-29
2023/04/12 13:57:06;;;;;;;7.68;1.20;;;;;;;15.98;55.68;95268.59;10427777;28;20311;-28
2023/04/12 14:02:07;;;;;;;3.87;1.10;;;;;;;15.99;56.15;95262.69;10423391;28;20033;-29
2023/04/12 14:07:07;;;;;;;4.43;1.30;;;;;;;16.01;56.37;95248.34;10428311;28;20378;-29
2023/04/12 14:12:08;;;;;;;1.35;0.80;;;;;;;15.99;56.07;95257.63;10416015;28;20379;-30
2023/04/12 14:17:08;;;;;;;3.30;1.30;;;;;;;16.00;55.03;95282.03;10425720;28;20033;-29
2023/04/12 14:22:08;;;;;;;3.30;0.97;;;;;;;15.97;55.29;95281.22;10417286;28;20030;-29
2023/04/12 14:27:09;;;;;;;5.17;1.30;;;;;;;15.97;55.66;95292.16;10417905;28;20041;-29
2023/04/12 14:32:09;;;;;;;2.78;1.20;;;;;;;16.00;54.97;95287.06;10416043;28;20028;-29
2023/04/12 14:37:10;;;;;;;1.85;0.95;;;;;;;16.00;55.31;95294.63;10433197;28;20037;-28
2023/04/12 14:42:10;;;;;;;3.50;1.08;;;;;;;16.03;54.78;95278.63;10423525;28;20030;-29
2023/04/12 14:47:11;;;;;;;2.00;0.90;;;;;;;16.04;54.84;95276.06;10441304;28;20044;-29
2023/04/12 14:52:11;;;;;;;2.13;0.90;;;;;;;16.03;54.49;95271.88;10422955;28;20484;-27
2023/04/12 14:57:11;;;;;;;1.50;0.70;;;;;;;16.01;55.16;95272.75;10408469;28;20036;-29
2023/04/12 15:02:12;;;;;;;2.47;0.90;;;;;;;15.99;55.57;95280.34;10415505;28;20427;-29
2023/04/12 15:07:12;;;;;;;4.73;1.00;;;;;;;16.01;55.08;95285.38;10416010;28;20480;-29
2023/04/12 15:12:12;;;;;;;2.13;0.80;;;;;;;16.01;55.43;95283.69;10407290;28;20087;-28
2023/04/12 15:17:13;;;;;;;1.77;0.87;;;;;;;16.02;55.23;95277.78;10410315;28;20136;-29
2023/04/12 15:22:13;;;;;;;1.20;0.60;;;;;;;16.08;56.86;95300.41;10425901;28;20105;-29
2023/04/12 15:27:13;;;;;;;2.17;1.00;;;;;;;16.12;56.81;95299.50;10425098;28;20566;-29
2023/04/12 15:32:14;;;;;;;0.90;0.60;;;;;;;16.15;54.67;95306.22;10423008;28;20036;-28
2023/04/12 15:37:14;;;;;;;2.50;0.70;;;;;;;16.15;54.38;95322.22;10430442;28;20106;-29
2023/04/12 15:42:15;;;;;;;1.70;0.90;;;;;;;16.16;54.28;95330.59;10421932;28;20762;-28
2023/04/12 15:47:16;;;;;;;1.30;0.65;;;;;;;16.19;54.15;95318.78;10432655;28;20059;-28
2023/04/12 15:52:16;;;;;;;3.27;0.80;;;;;;;16.20;54.35;95315.41;10428382;28;20083;-29
2023/04/12 15:57:17;;;;;;;3.70;1.20;;;;;;;16.19;54.01;95316.25;10418012;28;20276;-29
2023/04/12 16:02:17;;;;;;;3.27;0.83;;;;;;;16.22;54.08;95317.91;10449111;28;20037;-28
2023/04/12 16:07:19;;;;;;;4.47;1.10;;;;;;;16.22;54.13;95359.16;10408507;28;20045;-31
2023/04/12 16:12:20;;;;;;;6.55;1.85;;;;;;;16.21;54.20;95357.47;10408727;28;20060;-28
2023/04/12 16:17:20;;;;;;;3.63;1.20;;;;;;;16.23;54.73;95375.13;10432931;28;20095;-29
2023/04/12 16:22:21;;;;;;;5.95;1.08;;;;;;;16.24;54.31;95385.22;10418312;28;20029;-30
2023/04/12 16:27:21;;;;;;;9.32;1.20;;;;;;;16.27;54.80;95372.53;10411226;28;20041;-28
2023/04/12 16:32:22;;;;;;;5.77;1.30;;;;;;;16.28;54.50;95374.19;10423900;28;20084;-29
2023/04/12 16:37:23;;;;;;;5.83;1.67;;;;;;;16.29;54.63;95375.88;10419230;28;20055;-29
2023/04/12 16:42:26;;;;;;;6.13;1.42;;;;;;;16.32;55.92;95380.91;10424262;28;20295;-29
2023/04/12 16:47:27;;;;;;;15.07;4.30;;;;;;;16.34;56.43;95369.09;10439323;28;20060;-29
2023/04/12 16:52:28;;;;;;;7.88;1.25;;;;;;;16.35;54.08;95370.75;10431473;28;20056;-28
2023/04/12 16:57:28;;;;;;;5.43;1.38;;;;;;;16.31;54.27;95394.38;10441840;28;20043;-29
2023/04/12 17:02:28;;;;;;;4.75;1.65;;;;;;;16.32;54.43;95385.94;10433901;28;20067;-29
2023/04/12 17:07:29;;;;;;;5.70;1.20;;;;;;;16.33;53.95;95381.72;10426219;28;20112;-29
2023/04/12 17:12:29;;;;;;;5.17;1.40;;;;;;;16.35;54.14;95382.56;10416391;28;20034;-28
2023/04/12 17:17:30;;;;;;;6.00;1.50;;;;;;;16.33;54.54;95364.88;10429005;28;20487;-29
2023/04/12 17:22:30;;;;;;;4.20;1.48;;;;;;;16.34;53.82;95364.03;10442615;28;20083;-28
2023/04/12 17:27:36;;;;;;;3.25;1.20;;;;;;;16.39;54.05;95357.28;10444615;28;20032;-29
2023/04/12 17:32:37;;;;;;;2.72;1.08;;;;;;;16.39;53.98;95321.91;10439095;28;20036;-29
2023/04/12 17:37:38;;;;;;;4.20;1.48;;;;;;;16.44;53.78;95345.41;10448966;28;20102;-28
2023/04/12 17:42:40;;;;;;;4.23;1.70;;;;;;;16.55;55.88;95365.47;10433659;28;20036;-29
2023/04/12 17:47:41;;;;;;;4.88;1.27;;;;;;;16.55;56.18;95400.84;10411203;28;20296;-29
2023/04/12 17:52:41;;;;;;;4.70;1.50;;;;;;;16.48;54.82;95395.03;10430359;28;20119;-29
2023/04/12 17:57:43;;;;;;;6.83;1.50;;;;;;;16.50;56.04;95405.09;10422156;28;20115;-29
2023/04/12 18:02:44;;;;;;;3.80;1.67;;;;;;;16.52;56.31;95399.19;10416184;28;20712;-29
2023/04/12 18:07:45;;;;;;;4.30;1.15;;;;;;;16.53;55.38;95416.00;10415678;28;20053;-29
2023/04/12 18:12:45;;;;;;;5.37;1.80;;;;;;;16.48;54.39;95422.81;10417063;28;20044;-29
2023/04/12 18:17:45;;;;;;;7.07;1.57;;;;;;;16.49;56.07;95414.38;10427095;28;20075;-28
2023/04/12 18:22:46;;;;;;;4.80;1.92;;;;;;;16.48;55.05;95405.13;10411900;28;20034;-29
2023/04/12 18:27:47;;;;;;;3.67;1.20;;;;;;;16.43;54.39;95401.81;10419733;28;20079;-29
2023/04/12 18:32:47;;;;;;;3.90;1.17;;;;;;;16.42;54.40;95392.56;10417088;28;20641;-29
2023/04/12 18:37:47;;;;;;;7.93;1.37;;;;;;;16.40;54.40;95411.97;10416995;28;20033;-29
2023/04/12 18:42:48;;;;;;;2.67;1.08;;;;;;;16.36;54.26;95410.28;10424522;28;20299;-30
2023/04/12 18:47:50;;;;;;;4.70;1.60;;;;;;;16.38;54.17;95425.47;10422294;28;20037;-28
2023/04/12 18:52:50;;;;;;;3.75;1.23;;;;;;;16.32;54.00;95423.84;10408073;28;20778;-29
2023/04/12 18:57:50;;;;;;;4.40;1.20;;;;;;;16.34;54.20;95429.69;10432690;28;20040;-29
2023/04/12 19:02:51;;;;;;;4.03;1.10;;;;;;;16.36;54.11;95425.44;10407745;28;20107;-29
2023/04/12 19:07:51;;;;;;;3.60;1.40;;;;;;;16.38;54.75;95441.44;10429837;28;20491;-30
2023/04/12 19:12:52;;;;;;;6.18;1.35;;;;;;;16.38;54.54;95464.16;10415423;28;20025;-29
2023/04/12 19:17:53;;;;;;;9.30;1.65;;;;;;;16.39;57.83;95468.41;10423075;28;20612;-29
2023/04/12 19:22:53;;;;;;;4.32;1.40;;;;;;;16.45;58.58;95473.34;10414738;28;20049;-29
2023/04/12 19:27:54;;;;;;;2.80;1.37;;;;;;;16.39;55.30;95460.81;10426627;28;20059;-29
2023/04/12 19:32:54;;;;;;;2.33;0.95;;;;;;;16.37;55.23;95459.97;10413708;28;20552;-29
2023/04/12 19:37:57;;;;;;;3.15;1.67;;;;;;;16.37;54.57;95477.66;10411626;28;20041;-29
2023/04/12 19:42:57;;;;;;;5.82;1.10;;;;;;;16.33;54.81;95454.94;10424878;28;20039;-29
2023/04/12 19:47:57;;;;;;;3.23;1.07;;;;;;;16.33;55.16;95448.22;10407665;28;20577;-29
2023/04/12 19:52:58;;;;;;;4.43;1.20;;;;;;;16.35;56.00;95455.78;10421300;28;20596;-29
2023/04/12 19:57:59;;;;;;;2.20;1.30;;;;;;;16.36;55.54;95467.56;10423190;28;20043;-28
2023/04/12 20:03:00;;;;;;;3.40;1.25;;;;;;;16.36;55.00;95475.97;10406195;28;20296;-29
2023/04/12 20:08:00;;;;;;;4.97;0.95;;;;;;;16.35;55.61;95502.06;10417723;28;20041;-30
2023/04/12 20:13:02;;;;;;;2.27;0.90;;;;;;;16.36;56.00;95544.16;10413086;28;20045;-29
2023/04/12 20:18:03;;;;;;;2.28;1.25;;;;;;;16.36;56.32;95569.41;10418679;28;20514;-29
2023/04/12 20:23:04;;;;;;;4.97;1.13;;;;;;;16.37;56.44;95587.97;10411360;28;20132;-28
2023/04/12 20:28:04;;;;;;;2.23;0.77;;;;;;;16.37;54.87;95619.09;10422532;28;20041;-29
2023/04/12 20:33:05;;;;;;;2.70;1.30;;;;;;;16.37;57.05;95616.56;10428859;28;20299;-28
2023/04/12 20:38:06;;;;;;;3.95;1.08;;;;;;;16.32;58.65;95628.38;10410446;28;20037;-29
2023/04/12 20:43:07;;;;;;;4.63;1.10;;;;;;;16.38;58.35;95657.84;10412613;28;20411;-29
2023/04/12 20:48:08;;;;;;;1.23;0.88;;;;;;;16.35;56.56;95660.38;10409627;28;20044;-29
2023/04/12 20:53:13;;;;;;;2.50;0.93;;;;;;;16.35;56.27;95625.81;10420891;28;20032;-28
2023/04/12 20:58:15;;;;;;;3.08;1.15;;;;;;;16.33;55.79;95617.44;10405349;28;20033;-29
2023/04/12 21:03:16;;;;;;;2.33;1.17;;;;;;;16.31;57.50;95625.88;10413158;28;20445;-28
2023/04/12 21:08:17;;;;;;;2.50;0.80;;;;;;;16.31;54.76;95641.88;10415618;28;20048;-29
2023/04/12 21:13:20;;;;;;;3.38;0.98;;;;;;;16.29;55.22;95643.53;10407627;28;20443;-29
2023/04/12 21:18:21;;;;;;;3.42;1.20;;;;;;;16.29;55.58;95653.66;10409767;28;20063;-29
2023/04/12 21:23:22;;;;;;;2.22;0.80;;;;;;;16.30;54.89;95654.50;10425281;28;20187;-29
2023/04/12 21:28:23;;;;;;;6.63;1.67;;;;;;;16.26;55.34;95643.59;10425240;28;20240;-29
2023/04/12 21:33:23;;;;;;;2.03;0.80;;;;;;;16.29;56.36;95648.59;10428472;28;20037;-29
2023/04/12 21:38:24;;;;;;;2.63;0.82;;;;;;;16.28;56.74;95644.41;10419682;28;20774;-30
2023/04/12 21:43:24;;;;;;;2.08;1.02;;;;;;;16.25;56.83;95633.50;10413065;28;20029;-29
2023/04/12 21:48:25;;;;;;;5.03;1.00;;;;;;;16.26;56.00;95642.72;10433848;28;20052;-29
2023/04/12 21:53:26;;;;;;;3.95;0.90;;;;;;;16.28;58.33;95636.00;10431024;28;20029;-29
2023/04/12 21:58:31;;;;;;;4.22;1.38;;;;;;;16.31;58.45;95635.97;10423207;28;20037;-29
2023/04/12 22:03:31;;;;;;;4.65;1.00;;;;;;;16.30;57.39;95624.19;10419410;28;20261;-29
2023/04/12 22:08:31;;;;;;;3.87;1.13;;;;;;;16.28;58.00;95626.72;10417558;28;20037;-28
2023/04/12 22:13:33;;;;;;;3.00;0.77;;;;;;;16.27;56.86;95620.00;10418360;28;20037;-29
2023/04/12 22:18:34;;;;;;;1.98;0.70;;;;;;;16.26;56.86;95620.84;10423809;28;20033;-29
2023/04/12 22:23:37;;;;;;;2.97;0.75;;;;;;;16.26;58.13;95638.53;10426303;28;20045;-29
2023/04/12 22:28:38;;;;;;;1.73;0.85;;;;;;;16.26;57.58;95638.53;10421512;28;20039;-29
2023/04/12 22:33:39;;;;;;;3.33;0.80;;;;;;;16.26;56.45;95638.53;10414925;28;20468;-28
2023/04/12 22:38:39;;;;;;;5.43;0.98;;;;;;;16.25;58.50;95631.81;10434134;28;20021;-28
2023/04/12 22:43:46;;;;;;;2.50;0.90;;;;;;;16.25;57.83;95625.91;10432131;28;20113;-29
2023/04/12 22:48:48;;;;;;;3.92;0.70;;;;;;;16.25;57.85;95620.84;10412194;28;20038;-28
2023/04/12 22:53:49;;;;;;;2.10;0.70;;;;;;;16.24;58.24;95630.13;10412411;28;20033;-28
2023/04/12 22:58:49;;;;;;;3.00;0.77;;;;;;;16.21;58.63;95630.16;10411772;28;20040;-29
2023/04/12 23:03:50;;;;;;;2.43;0.80;;;;;;;16.22;57.37;95641.09;10418473;28;20036;-29
2023/04/12 23:08:51;;;;;;;1.33;0.68;;;;;;;16.25;58.21;95624.22;10418244;28;20041;-29
2023/04/12 23:13:51;;;;;;;3.63;0.95;;;;;;;16.25;58.81;95630.97;10414555;28;20422;-29
2023/04/12 23:18:52;;;;;;;5.73;1.37;;;;;;;16.26;58.55;95623.38;10417420;28;20800;-28
2023/04/12 23:23:54;;;;;;;3.35;1.30;;;;;;;16.25;58.75;95631.81;10411260;28;20326;-29